Terminal Aerodrome Forecast
Issued by NWS

Home | Current Version | Previous Version | Text Only | Print | Product List | Glossary On
Versions: 1 2 3 4 5 6 7 8 9 10 11 12 13 14 15 16 17 18 19 20 21 22 23 24 25 26 27 28 29
000
FTUS45 KBOI 111125
TAFTWF
TAF
KTWF 111125Z 1112/1212 20010KT P6SM SCT200
     FM111500 24008KT P6SM SCT200
     FM111700 30010KT P6SM SCT200
     FM120300 19008KT P6SM BKN200=

USA.gov is the U.S. government's official web portal to all federal, state and local government web resources and services.